createdAt,value
2023-02-18T00:01:01.831Z,1.20
2023-02-18T00:03:30.258Z,1.60
2023-02-18T00:05:57.699Z,1.07
2023-02-18T00:08:25.116Z,1.10
2023-02-18T00:10:53.187Z,1.43
2023-02-18T00:13:20.478Z,1.50
2023-02-18T00:15:47.888Z,1.07
2023-02-18T00:18:16.084Z,1.20
2023-02-18T00:20:43.401Z,1.57
2023-02-18T00:23:10.801Z,1.57
2023-02-18T00:25:38.154Z,1.20
2023-02-18T00:28:05.610Z,1.00
2023-02-18T00:30:33.304Z,1.23
2023-02-18T00:33:00.638Z,1.60
2023-02-18T00:35:28.032Z,1.30
2023-02-18T00:37:55.450Z,1.50
2023-02-18T00:40:22.732Z,1.00
2023-02-18T00:42:50.071Z,0.93
2023-02-18T00:45:17.478Z,1.13
2023-02-18T00:47:44.830Z,0.93
2023-02-18T00:50:12.318Z,1.07
2023-02-18T00:52:39.696Z,1.17
2023-02-18T00:55:08.093Z,0.90
2023-02-18T00:57:35.451Z,1.20
2023-02-18T01:00:05.051Z,1.43
2023-02-18T01:02:32.505Z,1.07
2023-02-18T01:04:59.945Z,1.43
2023-02-18T01:07:27.547Z,0.97
2023-02-18T01:09:54.941Z,1.30
2023-02-18T01:12:22.229Z,1.10
2023-02-18T01:14:49.545Z,1.80
2023-02-18T01:17:16.948Z,1.20
2023-02-18T01:19:44.364Z,1.27
2023-02-18T01:22:11.849Z,1.47
2023-02-18T01:24:39.187Z,1.10
2023-02-18T01:27:06.524Z,1.10
2023-02-18T01:29:35.115Z,0.80
2023-02-18T01:32:02.632Z,0.83
2023-02-18T01:34:30.027Z,0.80
2023-02-18T01:36:59.711Z,0.87
2023-02-18T01:39:27.671Z,1.43
2023-02-18T01:41:55.134Z,1.17
2023-02-18T01:44:25.252Z,1.43
2023-02-18T01:46:52.908Z,1.20
2023-02-18T01:49:29.082Z,0.90
2023-02-18T01:52:17.680Z,0.97
2023-02-18T01:54:54.583Z,1.03
2023-02-18T01:57:35.757Z,0.80
2023-02-18T02:00:12.116Z,1.00
2023-02-18T02:02:49.449Z,1.03
2023-02-18T02:05:17.109Z,1.00
2023-02-18T02:07:45.940Z,1.20
2023-02-18T02:10:14.552Z,1.00
2023-02-18T02:13:20.301Z,1.50
2023-02-18T02:15:55.619Z,1.43
2023-02-18T02:18:37.028Z,1.63
2023-02-18T02:21:25.358Z,1.90
2023-02-18T02:24:03.714Z,1.70
2023-02-18T02:26:49.607Z,1.37
2023-02-18T02:29:19.751Z,1.20
2023-02-18T02:31:59.283Z,1.50
2023-02-18T02:34:45.040Z,1.40
2023-02-18T02:37:17.956Z,1.27
2023-02-18T02:40:03.481Z,1.40
2023-02-18T02:42:51.100Z,1.17
2023-02-18T02:45:29.624Z,1.57
2023-02-18T02:48:02.697Z,1.50
2023-02-18T02:50:46.199Z,1.30
2023-02-18T02:53:20.284Z,1.20
2023-02-18T02:55:47.828Z,1.40
2023-02-18T02:58:19.778Z,1.20
2023-02-18T03:01:02.638Z,1.67
2023-02-18T03:03:48.825Z,1.77
2023-02-18T03:06:43.526Z,1.23
2023-02-18T03:09:14.181Z,1.50
2023-02-18T03:12:38.526Z,1.60
2023-02-18T03:15:24.684Z,1.20
2023-02-18T03:17:54.684Z,1.57
2023-02-18T03:20:28.875Z,1.20
2023-02-18T03:22:58.989Z,1.63
2023-02-18T03:25:26.901Z,1.90
2023-02-18T03:27:58.155Z,1.20
2023-02-18T03:30:31.405Z,1.40
2023-02-18T03:33:02.058Z,1.50
2023-02-18T03:35:29.733Z,1.20
2023-02-18T03:38:04.517Z,1.60
2023-02-18T03:40:32.167Z,1.40
2023-02-18T03:43:01.650Z,1.40
2023-02-18T03:45:29.361Z,1.47
2023-02-18T03:47:56.864Z,1.23
2023-02-18T03:50:24.744Z,1.40
2023-02-18T03:52:52.192Z,1.40
2023-02-18T03:55:19.623Z,1.37
2023-02-18T03:57:46.996Z,1.00
2023-02-18T04:00:14.736Z,1.10
2023-02-18T04:02:42.679Z,2.07
2023-02-18T04:05:10.348Z,1.30
2023-02-18T04:07:37.937Z,2.03
2023-02-18T04:10:06.455Z,1.40
2023-02-18T04:12:33.961Z,1.10
2023-02-18T04:15:01.331Z,1.27
2023-02-18T04:17:28.789Z,1.40
2023-02-18T04:19:56.129Z,1.30
2023-02-18T04:22:23.501Z,1.40
2023-02-18T04:24:50.864Z,1.40
2023-02-18T04:27:18.204Z,1.10
2023-02-18T04:29:45.798Z,0.90
2023-02-18T04:32:13.196Z,1.40
2023-02-18T04:34:40.628Z,1.07
2023-02-18T04:37:07.975Z,1.17
2023-02-18T04:39:35.462Z,1.10
2023-02-18T04:42:08.789Z,1.20
2023-02-18T04:44:37.251Z,1.30
2023-02-18T04:47:05.872Z,1.27
2023-02-18T04:49:33.676Z,1.20
2023-02-18T04:52:01.043Z,1.23
2023-02-18T04:54:28.430Z,1.10
2023-02-18T04:56:55.872Z,1.60
2023-02-18T04:59:23.260Z,1.10
2023-02-18T05:01:50.768Z,1.20
2023-02-18T05:04:18.308Z,1.27
2023-02-18T05:06:45.747Z,1.60
2023-02-18T05:09:13.390Z,1.47
2023-02-18T05:11:41.639Z,1.17
2023-02-18T05:14:09.011Z,1.30
2023-02-18T05:16:36.617Z,1.40
2023-02-18T05:19:03.998Z,1.47
2023-02-18T05:21:31.477Z,1.40
2023-02-18T05:23:58.923Z,1.10
2023-02-18T05:26:26.432Z,1.23
2023-02-18T05:28:53.846Z,1.30
2023-02-18T05:31:21.268Z,1.43
2023-02-18T05:33:48.703Z,1.37
2023-02-18T05:36:16.189Z,1.43
2023-02-18T05:38:43.592Z,1.17
2023-02-18T05:41:11.012Z,1.47
2023-02-18T05:43:56.816Z,1.60
2023-02-18T05:46:24.470Z,1.00
2023-02-18T05:48:51.809Z,1.30
2023-02-18T05:51:19.306Z,1.37
2023-02-18T05:53:46.608Z,2.30
2023-02-18T05:56:13.991Z,1.57
2023-02-18T05:58:41.358Z,1.77
2023-02-18T06:01:08.830Z,1.50
2023-02-18T06:03:36.175Z,1.10
2023-02-18T06:06:03.827Z,1.90
2023-02-18T06:08:31.220Z,1.30
2023-02-18T06:10:58.582Z,1.33
2023-02-18T06:13:25.987Z,1.00
2023-02-18T06:15:54.099Z,1.20
2023-02-18T06:18:22.017Z,1.40
2023-02-18T06:20:49.651Z,1.03
2023-02-18T06:23:17.203Z,0.93
2023-02-18T06:25:44.629Z,0.93
2023-02-18T06:28:11.979Z,1.00
2023-02-18T06:30:39.375Z,1.10
2023-02-18T06:33:06.777Z,1.07
2023-02-18T06:35:35.000Z,1.30
2023-02-18T06:38:02.480Z,1.60
2023-02-18T06:40:29.839Z,1.30
2023-02-18T06:42:57.237Z,1.13
2023-02-18T06:45:24.580Z,1.03
2023-02-18T06:47:51.921Z,1.23
2023-02-18T06:50:19.569Z,1.37
2023-02-18T06:52:47.031Z,1.03
2023-02-18T06:55:14.386Z,1.00
2023-02-18T06:57:41.800Z,1.37
2023-02-18T07:00:10.410Z,1.43
2023-02-18T07:02:37.933Z,1.60
2023-02-18T07:05:05.833Z,1.17
2023-02-18T07:07:33.278Z,1.40
2023-02-18T07:10:00.786Z,1.43
2023-02-18T07:12:28.537Z,1.50
2023-02-18T07:14:55.844Z,1.47
2023-02-18T07:17:23.194Z,1.77
2023-02-18T07:19:50.613Z,1.90
2023-02-18T07:22:18.186Z,1.43
2023-02-18T07:24:45.605Z,1.30
2023-02-18T07:27:13.105Z,1.10
2023-02-18T07:29:40.527Z,1.70
2023-02-18T07:32:07.935Z,1.33
2023-02-18T07:34:35.335Z,1.37
2023-02-18T07:37:02.843Z,1.60
2023-02-18T07:39:30.166Z,1.67
2023-02-18T07:41:57.481Z,1.47
2023-02-18T07:44:27.587Z,1.63
2023-02-18T07:46:54.920Z,1.73
2023-02-18T07:49:22.812Z,1.80
2023-02-18T07:51:50.780Z,1.63
2023-02-18T07:54:18.467Z,1.50
2023-02-18T07:56:46.325Z,1.60
2023-02-18T07:59:14.198Z,1.77
2023-02-18T08:01:44.078Z,1.40
2023-02-18T08:04:12.274Z,1.80
2023-02-18T08:06:41.618Z,1.70
2023-02-18T08:09:09.544Z,1.40
2023-02-18T08:11:36.964Z,1.93
2023-02-18T08:14:04.388Z,1.77
2023-02-18T08:16:31.746Z,2.10
2023-02-18T08:18:59.090Z,2.07
2023-02-18T08:21:26.837Z,2.00
2023-02-18T08:23:54.446Z,1.40
2023-02-18T08:26:21.858Z,2.30
2023-02-18T08:28:49.705Z,1.53
2023-02-18T08:31:23.135Z,1.80
2023-02-18T08:33:50.986Z,1.30
2023-02-18T08:36:18.751Z,1.40
2023-02-18T08:38:46.236Z,1.70
2023-02-18T08:41:14.563Z,1.70
2023-02-18T08:43:42.677Z,1.50
2023-02-18T08:46:16.528Z,2.10
2023-02-18T08:48:52.267Z,2.00
2023-02-18T08:51:21.777Z,1.80
2023-02-18T08:53:49.834Z,1.73
2023-02-18T08:56:17.812Z,1.37
2023-02-18T08:58:45.487Z,2.20
2023-02-18T09:01:13.747Z,2.10
2023-02-18T09:03:41.372Z,1.87
2023-02-18T09:06:09.379Z,1.30
2023-02-18T09:08:37.260Z,1.10
2023-02-18T09:11:05.136Z,1.73
2023-02-18T09:13:33.426Z,1.87
2023-02-18T09:16:06.994Z,1.97
2023-02-18T09:18:37.787Z,1.70
2023-02-18T09:21:07.016Z,1.60
2023-02-18T09:23:35.050Z,1.80
2023-02-18T09:26:06.110Z,1.93
2023-02-18T09:28:34.196Z,1.60
2023-02-18T09:31:13.747Z,1.90
2023-02-18T09:33:45.810Z,1.77
2023-02-18T09:36:13.975Z,1.93
2023-02-18T09:38:41.300Z,1.50
2023-02-18T09:41:28.284Z,1.33
2023-02-18T09:44:09.706Z,2.20
2023-02-18T09:46:58.878Z,1.70
2023-02-18T09:49:28.202Z,1.30
2023-02-18T09:51:56.641Z,1.70
2023-02-18T09:54:24.359Z,1.50
2023-02-18T09:56:52.749Z,1.20
2023-02-18T09:59:23.218Z,1.90
2023-02-18T10:01:52.884Z,1.40
2023-02-18T10:04:30.215Z,1.20
2023-02-18T10:06:58.110Z,1.27
2023-02-18T10:09:37.192Z,1.70
2023-02-18T10:12:17.585Z,1.20
2023-02-18T10:14:51.991Z,1.10
2023-02-18T10:17:19.762Z,1.00
2023-02-18T10:19:48.666Z,1.13
2023-02-18T10:22:17.349Z,1.10
2023-02-18T10:24:54.749Z,0.83
2023-02-18T10:27:42.299Z,1.10
2023-02-18T10:30:15.638Z,1.10
2023-02-18T10:32:46.405Z,1.13
2023-02-18T10:35:22.777Z,1.50
2023-02-18T10:38:20.790Z,1.40
2023-02-18T10:40:48.079Z,1.50
2023-02-18T10:43:23.765Z,1.17
2023-02-18T10:46:17.889Z,1.20
2023-02-18T10:48:48.397Z,1.40
2023-02-18T10:51:19.967Z,1.53
2023-02-18T10:53:51.327Z,1.20
2023-02-18T10:56:43.667Z,1.30
2023-02-18T10:59:19.793Z,1.80
2023-02-18T11:02:04.182Z,1.50
2023-02-18T11:04:42.695Z,1.20
2023-02-18T11:07:14.959Z,1.20
2023-02-18T11:09:48.153Z,1.20
2023-02-18T11:12:24.825Z,0.80
2023-02-18T11:15:24.967Z,1.20
2023-02-18T11:17:55.417Z,1.30
2023-02-18T11:20:30.198Z,1.40
2023-02-18T11:23:07.503Z,0.97
2023-02-18T11:25:37.025Z,1.20
2023-02-18T11:28:28.203Z,1.30
2023-02-18T11:30:58.613Z,1.10
2023-02-18T11:33:56.671Z,0.90
2023-02-18T11:36:33.030Z,1.33
2023-02-18T11:39:08.182Z,1.10
2023-02-18T11:41:44.418Z,1.00
2023-02-18T11:44:36.103Z,0.80
2023-02-18T11:47:04.806Z,1.03
2023-02-18T11:49:34.779Z,1.10
2023-02-18T11:52:11.012Z,1.30
2023-02-18T11:54:38.350Z,1.10
2023-02-18T11:57:10.105Z,1.20
2023-02-18T11:59:39.698Z,0.83
2023-02-18T12:02:27.842Z,1.60
2023-02-18T12:05:25.180Z,1.47
2023-02-18T12:08:00.312Z,1.03
2023-02-18T12:10:43.236Z,1.40
2023-02-18T12:13:36.783Z,1.40
2023-02-18T12:16:23.320Z,1.30
2023-02-18T12:19:10.398Z,1.60
2023-02-18T12:22:19.832Z,2.00
2023-02-18T12:25:25.201Z,1.60
2023-02-18T12:28:29.693Z,1.53
2023-02-18T12:31:19.067Z,1.90
2023-02-18T12:34:12.778Z,1.63
2023-02-18T12:36:46.041Z,1.60
2023-02-18T12:39:35.978Z,1.90
2023-02-18T12:42:41.044Z,1.30
2023-02-18T12:45:27.348Z,1.37
2023-02-18T12:48:13.293Z,1.47
2023-02-18T12:50:49.425Z,1.30
2023-02-18T12:53:16.799Z,2.50
2023-02-18T12:56:05.544Z,1.87
2023-02-18T12:58:35.930Z,1.50
2023-02-18T13:01:35.555Z,1.60
2023-02-18T13:04:14.908Z,1.97
2023-02-18T13:07:17.704Z,1.90
2023-02-18T13:09:54.109Z,1.70
2023-02-18T13:12:36.250Z,2.40
2023-02-18T13:15:14.839Z,2.07
2023-02-18T13:17:43.394Z,1.77
2023-02-18T13:20:38.639Z,1.80
2023-02-18T13:23:06.855Z,1.73
2023-02-18T13:25:37.775Z,2.07
2023-02-18T13:28:23.869Z,1.97
2023-02-18T13:31:16.163Z,2.07
2023-02-18T13:33:52.404Z,1.60
2023-02-18T13:36:34.708Z,2.30
2023-02-18T13:39:02.188Z,2.10
2023-02-18T13:41:30.019Z,1.83
2023-02-18T13:43:57.499Z,2.97
2023-02-18T13:46:25.851Z,1.93
2023-02-18T13:49:13.356Z,1.60
2023-02-18T13:51:42.121Z,1.50
2023-02-18T13:54:28.923Z,2.07
2023-02-18T13:57:03.879Z,2.10
2023-02-18T13:59:44.939Z,2.30
2023-02-18T14:02:21.582Z,2.00
2023-02-18T14:04:56.140Z,1.83
2023-02-18T14:07:35.924Z,2.20
2023-02-18T14:10:31.661Z,2.60
2023-02-18T14:12:59.056Z,2.17
2023-02-18T14:15:26.481Z,2.07
2023-02-18T14:18:12.787Z,1.67
2023-02-18T14:20:40.146Z,2.10
2023-02-18T14:23:19.199Z,2.37
2023-02-18T14:26:05.213Z,1.73
2023-02-18T14:28:38.527Z,2.00
2023-02-18T14:31:34.258Z,2.20
2023-02-18T14:34:04.748Z,1.53
2023-02-18T14:36:49.724Z,1.67
2023-02-18T14:39:29.352Z,2.13
2023-02-18T14:42:13.835Z,2.87
2023-02-18T14:44:54.073Z,1.97
2023-02-18T14:47:27.273Z,1.80
2023-02-18T14:49:59.936Z,1.70
2023-02-18T14:53:05.714Z,1.57
2023-02-18T14:55:35.848Z,2.00
2023-02-18T14:58:27.608Z,2.53
2023-02-18T15:00:55.071Z,1.90
2023-02-18T15:03:22.713Z,2.60
2023-02-18T15:05:52.935Z,2.63
2023-02-18T15:08:25.613Z,2.13
2023-02-18T15:10:59.149Z,2.80
2023-02-18T15:13:27.580Z,2.70
2023-02-18T15:16:08.945Z,2.43
2023-02-18T15:18:48.705Z,2.33
2023-02-18T15:21:22.487Z,2.43
2023-02-18T15:23:49.990Z,2.43
2023-02-18T15:26:17.492Z,2.40
2023-02-18T15:29:05.712Z,2.73
2023-02-18T15:31:38.757Z,2.17
2023-02-18T15:34:37.768Z,2.30
2023-02-18T15:37:07.520Z,2.70
2023-02-18T15:39:38.638Z,2.40
2023-02-18T15:42:33.613Z,2.40
2023-02-18T15:45:16.045Z,2.17
2023-02-18T15:47:44.746Z,2.40
2023-02-18T15:50:18.733Z,2.53
2023-02-18T15:52:46.285Z,2.10
2023-02-18T15:55:29.043Z,2.30
2023-02-18T15:57:56.848Z,2.23
2023-02-18T16:00:37.383Z,2.37
2023-02-18T16:03:15.996Z,2.80
2023-02-18T16:05:43.518Z,2.07
2023-02-18T16:08:17.159Z,2.60
2023-02-18T16:10:47.959Z,2.20
2023-02-18T16:13:17.373Z,2.50
2023-02-18T16:15:47.353Z,2.33
2023-02-18T16:18:39.744Z,2.07
2023-02-18T16:21:25.964Z,2.03
2023-02-18T16:23:59.890Z,2.50
2023-02-18T16:26:42.206Z,2.20
2023-02-18T16:29:15.149Z,2.57
2023-02-18T16:31:43.329Z,1.80
2023-02-18T16:34:10.736Z,2.20
2023-02-18T16:36:58.033Z,2.37
2023-02-18T16:39:25.486Z,2.10
2023-02-18T16:41:52.839Z,2.10
2023-02-18T16:44:20.192Z,2.30
2023-02-18T16:46:47.593Z,1.97
2023-02-18T16:49:15.201Z,2.90
2023-02-18T16:51:42.868Z,1.93
2023-02-18T16:54:13.941Z,1.70
2023-02-18T16:56:41.466Z,1.33
2023-02-18T16:59:08.854Z,2.33
2023-02-18T17:01:44.007Z,2.73
2023-02-18T17:04:13.670Z,2.80
2023-02-18T17:06:41.516Z,2.30
2023-02-18T17:09:17.075Z,2.03
2023-02-18T17:11:45.412Z,2.43
2023-02-18T17:14:15.355Z,2.80
2023-02-18T17:16:42.719Z,3.27
2023-02-18T17:19:10.104Z,2.40
2023-02-18T17:21:37.493Z,2.37
2023-02-18T17:24:05.460Z,2.30
2023-02-18T17:26:32.782Z,3.30
2023-02-18T17:29:00.892Z,2.30
2023-02-18T17:31:30.845Z,2.30
2023-02-18T17:34:01.325Z,2.73
2023-02-18T17:36:28.711Z,2.43
2023-02-18T17:38:56.454Z,2.70
2023-02-18T17:41:23.782Z,2.63
2023-02-18T17:43:51.137Z,2.13
2023-02-18T17:46:19.525Z,2.23
2023-02-18T17:48:47.839Z,3.00
2023-02-18T17:51:22.199Z,2.47
2023-02-18T17:53:49.574Z,2.60
2023-02-18T17:56:16.957Z,2.47
2023-02-18T17:58:46.359Z,2.40
2023-02-18T18:01:14.229Z,2.87
2023-02-18T18:03:41.759Z,2.47
2023-02-18T18:06:17.062Z,3.17
2023-02-18T18:08:44.500Z,3.33
2023-02-18T18:11:18.693Z,2.90
2023-02-18T18:13:46.609Z,3.30
2023-02-18T18:16:15.704Z,2.90
2023-02-18T18:18:43.340Z,3.10
2023-02-18T18:21:23.598Z,3.83
2023-02-18T18:23:51.361Z,3.20
2023-02-18T18:26:18.723Z,4.23
2023-02-18T18:28:46.067Z,4.40
2023-02-18T18:31:18.554Z,2.90
2023-02-18T18:33:51.374Z,3.53
2023-02-18T18:36:23.956Z,4.17
2023-02-18T18:38:51.590Z,4.30
2023-02-18T18:41:21.389Z,4.30
2023-02-18T18:43:49.589Z,4.50
2023-02-18T18:46:17.624Z,3.60
2023-02-18T18:48:45.482Z,4.37
2023-02-18T18:51:25.123Z,6.17
2023-02-18T18:53:52.524Z,3.77
2023-02-18T18:56:19.842Z,4.20
2023-02-18T18:58:47.482Z,4.67
2023-02-18T19:01:22.549Z,4.00
2023-02-18T19:03:50.109Z,4.47
2023-02-18T19:06:17.914Z,4.73
2023-02-18T19:08:46.645Z,5.57
2023-02-18T19:11:14.756Z,5.10
2023-02-18T19:13:42.279Z,4.70
2023-02-18T19:16:18.373Z,5.73
2023-02-18T19:18:46.178Z,5.27
2023-02-18T19:21:13.659Z,5.27
2023-02-18T19:23:41.093Z,5.73
2023-02-18T19:26:09.260Z,7.53
2023-02-18T19:28:37.110Z,5.93
2023-02-18T19:31:09.696Z,7.30
2023-02-18T19:33:39.129Z,6.50
2023-02-18T19:36:10.882Z,7.20
2023-02-18T19:38:38.769Z,6.93
2023-02-18T19:41:14.168Z,6.50
2023-02-18T19:43:42.786Z,5.97
2023-02-18T19:46:11.929Z,5.03
2023-02-18T19:48:39.633Z,6.40
2023-02-18T19:51:08.395Z,6.40
2023-02-18T19:53:36.109Z,6.70
2023-02-18T19:56:07.327Z,5.67
2023-02-18T19:58:35.471Z,7.00
2023-02-18T20:01:03.072Z,6.23
2023-02-18T20:03:30.454Z,6.13
2023-02-18T20:05:57.846Z,6.77
2023-02-18T20:08:25.189Z,5.03
2023-02-18T20:10:59.274Z,9.57
2023-02-18T20:13:27.107Z,8.00
2023-02-18T20:15:54.622Z,7.30
2023-02-18T20:18:21.999Z,7.33
2023-02-18T20:20:50.546Z,6.80
2023-02-18T20:23:17.949Z,7.10
2023-02-18T20:25:47.570Z,6.30
2023-02-18T20:28:15.126Z,7.60
2023-02-18T20:30:43.029Z,6.70
2023-02-18T20:33:10.618Z,7.63
2023-02-18T20:35:38.165Z,7.37
2023-02-18T20:38:05.051Z,7.03
2023-02-18T20:40:32.487Z,8.50
2023-02-18T20:42:59.458Z,7.03
2023-02-18T20:45:26.549Z,7.03
2023-02-18T20:47:53.560Z,7.37
2023-02-18T20:50:21.789Z,6.60
2023-02-18T20:52:48.804Z,7.03
2023-02-18T20:55:15.933Z,7.70
2023-02-18T20:57:42.976Z,6.60
2023-02-18T21:00:10.982Z,7.20
2023-02-18T21:02:38.017Z,6.37
2023-02-18T21:05:05.709Z,7.27
2023-02-18T21:07:33.109Z,6.23
2023-02-18T21:10:00.065Z,7.83
2023-02-18T21:12:27.058Z,6.77
2023-02-18T21:14:53.978Z,7.47
2023-02-18T21:17:22.077Z,6.60
2023-02-18T21:19:49.029Z,6.73
2023-02-18T21:22:15.984Z,7.17
2023-02-18T21:24:43.025Z,6.30
2023-02-18T21:27:10.734Z,6.60
2023-02-18T21:29:37.678Z,7.70
2023-02-18T21:32:05.015Z,7.00
2023-02-18T21:34:32.074Z,6.60
2023-02-18T21:36:59.056Z,5.73
2023-02-18T21:39:26.055Z,6.73
2023-02-18T21:41:53.081Z,7.53
2023-02-18T21:44:21.553Z,6.70
2023-02-18T21:46:51.879Z,7.20
2023-02-18T21:49:18.816Z,6.57
2023-02-18T21:51:57.170Z,7.43
2023-02-18T21:54:30.992Z,6.90
2023-02-18T21:57:00.061Z,5.37
2023-02-18T21:59:29.343Z,7.00
2023-02-18T22:01:59.868Z,6.70
2023-02-18T22:04:28.959Z,7.27
2023-02-18T22:06:55.915Z,7.33
2023-02-18T22:09:23.984Z,6.20
2023-02-18T22:11:51.617Z,6.60
2023-02-18T22:14:18.871Z,5.97
2023-02-18T22:16:46.001Z,6.00
2023-02-18T22:19:14.841Z,5.97
2023-02-18T22:21:42.634Z,5.50
2023-02-18T22:24:12.508Z,5.37
2023-02-18T22:26:40.105Z,4.80
2023-02-18T22:29:07.511Z,5.00
2023-02-18T22:31:34.593Z,5.03
2023-02-18T22:34:01.633Z,5.17
2023-02-18T22:36:29.425Z,5.47
2023-02-18T22:38:58.260Z,4.80
2023-02-18T22:41:27.357Z,4.10
2023-02-18T22:43:57.474Z,4.53
2023-02-18T22:46:25.101Z,5.43
2023-02-18T22:48:55.316Z,4.60
2023-02-18T22:51:31.212Z,4.70
2023-02-18T22:54:00.377Z,3.63
2023-02-18T22:56:29.622Z,4.20
2023-02-18T22:58:58.301Z,4.47
2023-02-18T23:01:33.201Z,4.40
2023-02-18T23:04:14.488Z,4.17
2023-02-18T23:06:43.554Z,5.13
2023-02-18T23:09:20.073Z,3.20
2023-02-18T23:11:51.223Z,4.40
2023-02-18T23:14:18.852Z,3.40
2023-02-18T23:17:12.522Z,4.47
2023-02-18T23:19:51.488Z,4.17
2023-02-18T23:22:35.436Z,3.20
2023-02-18T23:25:02.619Z,3.73
2023-02-18T23:27:30.311Z,4.10
2023-02-18T23:29:57.544Z,4.00
2023-02-18T23:32:24.976Z,3.50
2023-02-18T23:34:52.528Z,4.23
2023-02-18T23:37:40.343Z,3.73
2023-02-18T23:40:09.151Z,3.43
2023-02-18T23:42:36.134Z,3.90
2023-02-18T23:45:03.157Z,3.77
2023-02-18T23:47:30.141Z,3.87
2023-02-18T23:49:57.067Z,4.40
2023-02-18T23:52:24.047Z,3.43
2023-02-18T23:54:51.148Z,3.20
2023-02-18T23:57:18.069Z,4.20
2023-02-18T23:59:45.469Z,3.80
